• Join FlightAware (Why Join?)
  • Login
  • US Flag 
04:48AM EDT


 

Airport Tracker/Info


-or-


 

Live Flight TrackerFlight Track Log ✈ EJA831 ✈ 22-Jun-2013 ✈ KLCI - KPVD

Flight Track Log - Related Links

Times and Time Zones

All times are in EDT time to prevent confusion due to time zone crossing. See the EJA831 flight status page for this flight to view local times or setup timezone preferences in your user account.

Time Position Orientation Groundspeed Altitude Reporting Facility
EDT Latitude Longitude Course Direction KTS MPH feet Rate Location/Type
10:13AM 43.5667 -71.4500 235° Southwest 270 311 1,900  Level KA90
10:14AM 43.5333 -71.5167 235° Southwest 228 262 5,400 3,420 Climbing KA90
10:15AM 43.4667 -71.5500 200° South 260 299 8,400 2,280 Climbing KA90
10:16AM 43.3833 -71.5833 196° South 276 318 10,000 840 Climbing KA90
10:17AM 43.3167 -71.6333 209° Southwest 320 368 10,100  Climbing KA90
10:18AM 43.2003 -71.7081 205° Southwest 340 391 10,000 -60 Descending Boston Center
10:19AM 43.1383 -71.7886 224° Southwest 312 359 10,000  Level Boston Center
10:20AM 43.0825 -71.8658 225° Southwest 317 365 10,000  Level Boston Center
10:21AM 42.9869 -71.9461 212° Southwest 317 365 10,000  Level Boston Center
10:22AM 42.8997 -71.9667 190° South 316 364 10,000  Level Boston Center
10:23AM 42.8164 -71.9900 192° South 321 369 10,100  Climbing Boston Center
10:24AM 42.7247 -72.0133 191° South 321 369 10,100  Level Boston Center
10:25AM 42.6539 -72.0308 190° South 321 369 10,100  Level Boston Center
10:26AM 42.5706 -72.0567 193° South 328 377 10,100  Level Boston Center
10:27AM 42.5081 -72.0486 175° South 329 379 10,100  Level Boston Center
10:27AM 42.4558 -72.0292 165° South 326 375 10,100 -120 Level Boston Center
10:28AM 42.3683 -71.9933 163° South 337 388 10,000 -60 Descending Boston Center
10:29AM 42.2764 -71.9603 165° South 337 388 10,000  Level Boston Center
10:30AM 42.2264 -71.9439 166° South 333 383 10,000  Level Boston Center
10:31AM 42.1344 -71.9139 166° South 333 383 10,000  Level Boston Center
10:32AM 42.0425 -71.8753 163° South 333 383 10,000  Level Boston Center
10:33AM 41.9569 -71.8314 159° South 336 387 10,000 -780 Level Boston Center
10:34AM 41.9189 -71.7231 115° Southeast 303 349 8,500 -1,680 Descending Boston Center
10:35AM 41.8828 -71.6314 118° Southeast 282 325 6,700 -1,800 Descending Boston Center
10:36AM 41.8569 -71.5397 111° Southeast 268 308 4,900 -1,380 Descending Boston Center
10:37AM 41.8250 -71.4622 119° Southeast 223 257 3,900 -1,320 Descending Boston Center
10:38AM 41.7997 -71.4125 124° Southeast 167 192 2,300 -1,440 Descending Boston Center
10:39AM 41.7619 -71.3992 165° South 130 150 1,000 -1,140 Descending Boston Center
10:40AM 41.7331 -71.4219 210° Southwest 112 129 100 -900 Descending Boston Center
10:44AM 41.7167 -71.4167 North  Level FlightAware Approximate